sensor_id;sensor_type;location;lat;lon;timestamp;temperature;humidity
77100;SHT31;66602;48.922;2.414;2023-04-01T00:00:56;10.96;76.22
77100;SHT31;66602;48.922;2.414;2023-04-01T00:03:22;10.99;75.89
77100;SHT31;66602;48.922;2.414;2023-04-01T00:05:48;10.97;75.94
77100;SHT31;66602;48.922;2.414;2023-04-01T00:08:14;11.00;75.60
77100;SHT31;66602;48.922;2.414;2023-04-01T00:10:40;11.02;75.50
77100;SHT31;66602;48.922;2.414;2023-04-01T00:13:05;11.07;75.28
77100;SHT31;66602;48.922;2.414;2023-04-01T00:15:31;11.07;75.40
77100;SHT31;66602;48.922;2.414;2023-04-01T00:17:57;11.04;75.48
77100;SHT31;66602;48.922;2.414;2023-04-01T00:20:24;11.07;75.08
77100;SHT31;66602;48.922;2.414;2023-04-01T00:22:50;11.06;75.32
77100;SHT31;66602;48.922;2.414;2023-04-01T00:25:16;11.12;75.18
77100;SHT31;66602;48.922;2.414;2023-04-01T00:27:42;11.06;75.54
77100;SHT31;66602;48.922;2.414;2023-04-01T00:30:08;11.04;75.86
77100;SHT31;66602;48.922;2.414;2023-04-01T00:32:34;11.02;75.91
77100;SHT31;66602;48.922;2.414;2023-04-01T00:35:00;11.03;76.52
77100;SHT31;66602;48.922;2.414;2023-04-01T00:37:27;10.99;76.35
77100;SHT31;66602;48.922;2.414;2023-04-01T00:39:53;10.92;76.85
77100;SHT31;66602;48.922;2.414;2023-04-01T00:42:18;10.95;76.76
77100;SHT31;66602;48.922;2.414;2023-04-01T00:44:47;10.95;76.87
77100;SHT31;66602;48.922;2.414;2023-04-01T00:47:15;10.96;76.45
77100;SHT31;66602;48.922;2.414;2023-04-01T00:49:44;10.95;76.89
77100;SHT31;66602;48.922;2.414;2023-04-01T00:52:14;10.89;77.15
77100;SHT31;66602;48.922;2.414;2023-04-01T00:54:43;10.85;77.74
77100;SHT31;66602;48.922;2.414;2023-04-01T00:57:15;10.85;77.66
77100;SHT31;66602;48.922;2.414;2023-04-01T00:59:45;10.91;77.38
77100;SHT31;66602;48.922;2.414;2023-04-01T01:02:15;10.83;77.88
77100;SHT31;66602;48.922;2.414;2023-04-01T01:04:41;10.82;77.87
77100;SHT31;66602;48.922;2.414;2023-04-01T01:07:39;10.80;77.37
77100;SHT31;66602;48.922;2.414;2023-04-01T01:10:23;10.83;77.85
77100;SHT31;66602;48.922;2.414;2023-04-01T01:13:18;10.76;78.50
77100;SHT31;66602;48.922;2.414;2023-04-01T01:15:58;10.71;79.32
77100;SHT31;66602;48.922;2.414;2023-04-01T01:18:40;10.66;79.85
77100;SHT31;66602;48.922;2.414;2023-04-01T01:32:07;10.58;80.22
77100;SHT31;66602;48.922;2.414;2023-04-01T01:34:50;10.59;79.79
77100;SHT31;66602;48.922;2.414;2023-04-01T01:37:20;10.61;79.89
77100;SHT31;66602;48.922;2.414;2023-04-01T01:39:55;10.66;79.32
77100;SHT31;66602;48.922;2.414;2023-04-01T01:42:25;10.65;79.56
77100;SHT31;66602;48.922;2.414;2023-04-01T01:44:52;10.79;78.46
77100;SHT31;66602;48.922;2.414;2023-04-01T01:47:19;10.80;78.60
77100;SHT31;66602;48.922;2.414;2023-04-01T01:49:47;10.75;78.68
77100;SHT31;66602;48.922;2.414;2023-04-01T01:52:13;10.79;78.86
77100;SHT31;66602;48.922;2.414;2023-04-01T01:54:54;10.75;79.27
77100;SHT31;66602;48.922;2.414;2023-04-01T01:57:25;10.66;79.91
77100;SHT31;66602;48.922;2.414;2023-04-01T01:59:53;10.59;80.64
77100;SHT31;66602;48.922;2.414;2023-04-01T02:02:21;10.55;81.39
77100;SHT31;66602;48.922;2.414;2023-04-01T02:04:49;10.46;81.75
77100;SHT31;66602;48.922;2.414;2023-04-01T02:07:20;10.51;81.94
77100;SHT31;66602;48.922;2.414;2023-04-01T02:09:47;10.54;81.47
77100;SHT31;66602;48.922;2.414;2023-04-01T02:12:14;10.52;81.71
77100;SHT31;66602;48.922;2.414;2023-04-01T02:14:53;10.52;81.23
77100;SHT31;66602;48.922;2.414;2023-04-01T02:17:22;10.55;81.09
77100;SHT31;66602;48.922;2.414;2023-04-01T02:20:13;10.55;81.31
77100;SHT31;66602;48.922;2.414;2023-04-01T02:22:40;10.56;81.26
77100;SHT31;66602;48.922;2.414;2023-04-01T02:25:13;10.55;81.46
77100;SHT31;66602;48.922;2.414;2023-04-01T02:27:42;10.51;81.61
77100;SHT31;66602;48.922;2.414;2023-04-01T02:30:09;10.48;81.87
77100;SHT31;66602;48.922;2.414;2023-04-01T02:32:37;10.46;81.90
77100;SHT31;66602;48.922;2.414;2023-04-01T02:35:05;10.45;82.16
77100;SHT31;66602;48.922;2.414;2023-04-01T02:37:31;10.42;82.42
77100;SHT31;66602;48.922;2.414;2023-04-01T02:40:01;10.48;81.82
77100;SHT31;66602;48.922;2.414;2023-04-01T02:42:27;10.41;82.12
77100;SHT31;66602;48.922;2.414;2023-04-01T02:44:52;10.49;81.65
77100;SHT31;66602;48.922;2.414;2023-04-01T02:47:18;10.51;81.63
77100;SHT31;66602;48.922;2.414;2023-04-01T02:49:43;10.55;81.12
77100;SHT31;66602;48.922;2.414;2023-04-01T02:52:09;10.52;81.32
77100;SHT31;66602;48.922;2.414;2023-04-01T02:54:34;10.44;81.88
77100;SHT31;66602;48.922;2.414;2023-04-01T02:57:00;10.40;81.64
77100;SHT31;66602;48.922;2.414;2023-04-01T02:59:25;10.24;82.89
77100;SHT31;66602;48.922;2.414;2023-04-01T03:01:51;10.14;83.74
77100;SHT31;66602;48.922;2.414;2023-04-01T03:04:16;10.14;83.61
77100;SHT31;66602;48.922;2.414;2023-04-01T03:06:42;10.31;82.21
77100;SHT31;66602;48.922;2.414;2023-04-01T03:09:07;10.35;81.45
77100;SHT31;66602;48.922;2.414;2023-04-01T03:11:33;10.37;81.40
77100;SHT31;66602;48.922;2.414;2023-04-01T03:13:58;10.35;81.72
77100;SHT31;66602;48.922;2.414;2023-04-01T03:16:24;10.42;81.03
77100;SHT31;66602;48.922;2.414;2023-04-01T03:18:49;10.48;80.18
77100;SHT31;66602;48.922;2.414;2023-04-01T03:21:20;10.48;80.48
77100;SHT31;66602;48.922;2.414;2023-04-01T03:23:45;10.48;80.52
77100;SHT31;66602;48.922;2.414;2023-04-01T03:26:11;10.48;80.67
77100;SHT31;66602;48.922;2.414;2023-04-01T03:28:37;10.38;81.73
77100;SHT31;66602;48.922;2.414;2023-04-01T03:31:03;10.40;81.31
77100;SHT31;66602;48.922;2.414;2023-04-01T03:33:28;10.38;81.43
77100;SHT31;66602;48.922;2.414;2023-04-01T03:35:54;10.38;81.21
77100;SHT31;66602;48.922;2.414;2023-04-01T03:38:19;10.42;81.21
77100;SHT31;66602;48.922;2.414;2023-04-01T03:40:45;10.35;81.80
77100;SHT31;66602;48.922;2.414;2023-04-01T03:43:11;10.33;82.14
77100;SHT31;66602;48.922;2.414;2023-04-01T03:45:46;10.31;81.96
77100;SHT31;66602;48.922;2.414;2023-04-01T03:48:13;10.33;82.38
77100;SHT31;66602;48.922;2.414;2023-04-01T03:50:39;10.27;82.26
77100;SHT31;66602;48.922;2.414;2023-04-01T03:53:05;10.28;82.74
77100;SHT31;66602;48.922;2.414;2023-04-01T03:55:30;10.18;83.72
77100;SHT31;66602;48.922;2.414;2023-04-01T03:57:56;10.08;84.33
77100;SHT31;66602;48.922;2.414;2023-04-01T04:00:21;10.07;84.46
77100;SHT31;66602;48.922;2.414;2023-04-01T04:02:47;10.05;83.97
77100;SHT31;66602;48.922;2.414;2023-04-01T04:05:12;9.98;83.65
77100;SHT31;66602;48.922;2.414;2023-04-01T04:07:38;10.13;82.91
77100;SHT31;66602;48.922;2.414;2023-04-01T04:10:05;10.20;81.95
77100;SHT31;66602;48.922;2.414;2023-04-01T04:12:31;10.31;82.06
77100;SHT31;66602;48.922;2.414;2023-04-01T04:14:56;10.33;81.57
77100;SHT31;66602;48.922;2.414;2023-04-01T04:17:22;10.45;80.36
77100;SHT31;66602;48.922;2.414;2023-04-01T04:19:47;10.42;80.55
77100;SHT31;66602;48.922;2.414;2023-04-01T04:22:12;10.44;80.02
77100;SHT31;66602;48.922;2.414;2023-04-01T04:24:38;10.51;79.59
77100;SHT31;66602;48.922;2.414;2023-04-01T04:27:04;10.63;78.45
77100;SHT31;66602;48.922;2.414;2023-04-01T04:29:29;10.65;78.75
77100;SHT31;66602;48.922;2.414;2023-04-01T04:31:55;10.72;77.69
77100;SHT31;66602;48.922;2.414;2023-04-01T04:34:20;10.71;78.18
77100;SHT31;66602;48.922;2.414;2023-04-01T04:36:47;10.73;77.51
77100;SHT31;66602;48.922;2.414;2023-04-01T04:39:13;10.82;77.10
77100;SHT31;66602;48.922;2.414;2023-04-01T04:41:38;10.80;76.75
77100;SHT31;66602;48.922;2.414;2023-04-01T04:44:04;10.77;77.41
77100;SHT31;66602;48.922;2.414;2023-04-01T04:46:30;10.77;76.88
77100;SHT31;66602;48.922;2.414;2023-04-01T04:48:56;10.82;76.60
77100;SHT31;66602;48.922;2.414;2023-04-01T04:51:22;10.77;77.06
77100;SHT31;66602;48.922;2.414;2023-04-01T04:53:48;10.86;76.33
77100;SHT31;66602;48.922;2.414;2023-04-01T04:56:21;10.88;76.13
77100;SHT31;66602;48.922;2.414;2023-04-01T04:58:46;10.88;75.84
77100;SHT31;66602;48.922;2.414;2023-04-01T05:01:14;10.86;76.28
77100;SHT31;66602;48.922;2.414;2023-04-01T05:03:40;10.88;76.03
77100;SHT31;66602;48.922;2.414;2023-04-01T05:06:08;10.88;75.44
77100;SHT31;66602;48.922;2.414;2023-04-01T05:08:34;10.96;75.53
77100;SHT31;66602;48.922;2.414;2023-04-01T05:11:00;10.96;75.37
77100;SHT31;66602;48.922;2.414;2023-04-01T05:13:26;10.92;75.41
77100;SHT31;66602;48.922;2.414;2023-04-01T05:15:52;10.93;75.25
77100;SHT31;66602;48.922;2.414;2023-04-01T05:18:17;10.96;74.91
77100;SHT31;66602;48.922;2.414;2023-04-01T05:20:52;10.95;75.07
77100;SHT31;66602;48.922;2.414;2023-04-01T05:23:18;10.97;75.04
77100;SHT31;66602;48.922;2.414;2023-04-01T05:25:46;10.95;74.60
77100;SHT31;66602;48.922;2.414;2023-04-01T05:28:12;11.00;74.30
77100;SHT31;66602;48.922;2.414;2023-04-01T05:30:42;10.95;74.71
77100;SHT31;66602;48.922;2.414;2023-04-01T05:33:09;10.99;73.99
77100;SHT31;66602;48.922;2.414;2023-04-01T05:35:35;11.00;74.27
77100;SHT31;66602;48.922;2.414;2023-04-01T05:38:01;10.96;74.33
77100;SHT31;66602;48.922;2.414;2023-04-01T05:40:28;11.00;74.25
77100;SHT31;66602;48.922;2.414;2023-04-01T05:42:53;10.99;74.36
77100;SHT31;66602;48.922;2.414;2023-04-01T05:45:19;10.97;74.35
77100;SHT31;66602;48.922;2.414;2023-04-01T05:47:45;10.97;74.35
77100;SHT31;66602;48.922;2.414;2023-04-01T05:50:11;10.95;74.26
77100;SHT31;66602;48.922;2.414;2023-04-01T05:52:37;10.92;74.70
77100;SHT31;66602;48.922;2.414;2023-04-01T05:55:03;10.89;74.72
77100;SHT31;66602;48.922;2.414;2023-04-01T05:57:29;10.89;74.39
77100;SHT31;66602;48.922;2.414;2023-04-01T05:59:54;10.92;74.91
77100;SHT31;66602;48.922;2.414;2023-04-01T06:02:19;10.91;73.92
77100;SHT31;66602;48.922;2.414;2023-04-01T06:04:45;10.96;73.87
77100;SHT31;66602;48.922;2.414;2023-04-01T06:07:16;10.97;73.88
77100;SHT31;66602;48.922;2.414;2023-04-01T06:09:44;10.95;73.78
77100;SHT31;66602;48.922;2.414;2023-04-01T06:12:38;10.95;73.73
77100;SHT31;66602;48.922;2.414;2023-04-01T06:15:25;10.96;73.87
77100;SHT31;66602;48.922;2.414;2023-04-01T06:18:03;11.00;73.06
77100;SHT31;66602;48.922;2.414;2023-04-01T06:20:47;11.03;72.69
77100;SHT31;66602;48.922;2.414;2023-04-01T06:31:47;11.10;73.01
77100;SHT31;66602;48.922;2.414;2023-04-01T06:37:12;11.07;72.54
77100;SHT31;66602;48.922;2.414;2023-04-01T06:54:03;11.24;71.63
77100;SHT31;66602;48.922;2.414;2023-04-01T06:56:02;11.28;72.00
77100;SHT31;66602;48.922;2.414;2023-04-01T06:58:52;11.30;71.40
77100;SHT31;66602;48.922;2.414;2023-04-01T07:01:28;11.40;71.42
77100;SHT31;66602;48.922;2.414;2023-04-01T07:04:06;11.41;70.56
77100;SHT31;66602;48.922;2.414;2023-04-01T07:06:42;11.51;70.20
77100;SHT31;66602;48.922;2.414;2023-04-01T07:09:14;11.58;70.04
77100;SHT31;66602;48.922;2.414;2023-04-01T07:11:42;11.68;69.70
77100;SHT31;66602;48.922;2.414;2023-04-01T07:16:52;11.74;68.93
77100;SHT31;66602;48.922;2.414;2023-04-01T07:19:29;11.96;69.04
77100;SHT31;66602;48.922;2.414;2023-04-01T07:24:42;12.05;67.74
77100;SHT31;66602;48.922;2.414;2023-04-01T07:27:11;12.36;67.08
77100;SHT31;66602;48.922;2.414;2023-04-01T07:29:37;12.39;66.54
77100;SHT31;66602;48.922;2.414;2023-04-01T07:32:20;11.99;67.83
77100;SHT31;66602;48.922;2.414;2023-04-01T07:48:55;12.59;65.02
77100;SHT31;66602;48.922;2.414;2023-04-01T07:59:39;13.82;61.30
77100;SHT31;66602;48.922;2.414;2023-04-01T08:10:22;12.33;66.27
77100;SHT31;66602;48.922;2.414;2023-04-01T08:15:28;12.15;67.29
77100;SHT31;66602;48.922;2.414;2023-04-01T08:20:50;12.30;66.58
77100;SHT31;66602;48.922;2.414;2023-04-01T08:23:19;12.36;65.90
77100;SHT31;66602;48.922;2.414;2023-04-01T08:31:09;12.57;65.02
77100;SHT31;66602;48.922;2.414;2023-04-01T08:33:37;12.29;66.14
77100;SHT31;66602;48.922;2.414;2023-04-01T08:36:23;12.13;67.18
77100;SHT31;66602;48.922;2.414;2023-04-01T08:39:07;11.93;69.43
77100;SHT31;66602;48.922;2.414;2023-04-01T08:47:54;11.93;70.03
77100;SHT31;66602;48.922;2.414;2023-04-01T08:56:42;11.64;71.16
77100;SHT31;66602;48.922;2.414;2023-04-01T09:27:00;13.04;64.30
77100;SHT31;66602;48.922;2.414;2023-04-01T09:29:56;12.91;63.52
77100;SHT31;66602;48.922;2.414;2023-04-01T09:32:57;12.61;65.26
77100;SHT31;66602;48.922;2.414;2023-04-01T09:35:48;12.33;66.03
77100;SHT31;66602;48.922;2.414;2023-04-01T09:38:28;12.59;65.17
77100;SHT31;66602;48.922;2.414;2023-04-01T09:40:59;12.71;64.16
77100;SHT31;66602;48.922;2.414;2023-04-01T09:46:04;12.90;62.49
77100;SHT31;66602;48.922;2.414;2023-04-01T09:51:37;12.97;62.48
77100;SHT31;66602;48.922;2.414;2023-04-01T10:29:52;14.41;54.44
77100;SHT31;66602;48.922;2.414;2023-04-01T10:32:44;14.16;54.20
77100;SHT31;66602;48.922;2.414;2023-04-01T10:44:09;17.50;44.52
77100;SHT31;66602;48.922;2.414;2023-04-01T10:52:34;15.51;48.67
77100;SHT31;66602;48.922;2.414;2023-04-01T11:12:14;16.46;47.31
77100;SHT31;66602;48.922;2.414;2023-04-01T11:20:56;19.68;37.92
77100;SHT31;66602;48.922;2.414;2023-04-01T11:26:21;16.45;46.03
77100;SHT31;66602;48.922;2.414;2023-04-01T11:31:34;15.84;48.79
77100;SHT31;66602;48.922;2.414;2023-04-01T11:34:22;16.38;46.99
77100;SHT31;66602;48.922;2.414;2023-04-01T11:39:53;17.21;44.64
77100;SHT31;66602;48.922;2.414;2023-04-01T11:44:58;21.32;36.74
77100;SHT31;66602;48.922;2.414;2023-04-01T11:48:02;23.91;31.29
77100;SHT31;66602;48.922;2.414;2023-04-01T11:53:47;23.57;31.03
77100;SHT31;66602;48.922;2.414;2023-04-01T11:59:03;19.38;37.14
77100;SHT31;66602;48.922;2.414;2023-04-01T12:01:40;18.66;39.51
77100;SHT31;66602;48.922;2.414;2023-04-01T12:09:56;19.73;37.99
77100;SHT31;66602;48.922;2.414;2023-04-01T12:17:39;18.18;40.13
77100;SHT31;66602;48.922;2.414;2023-04-01T12:22:43;17.83;41.66
77100;SHT31;66602;48.922;2.414;2023-04-01T12:31:41;20.29;35.17
77100;SHT31;66602;48.922;2.414;2023-04-01T12:37:27;20.04;36.21
77100;SHT31;66602;48.922;2.414;2023-04-01T12:40:16;17.62;40.58
77100;SHT31;66602;48.922;2.414;2023-04-01T12:45:44;17.29;42.48
77100;SHT31;66602;48.922;2.414;2023-04-01T12:48:19;17.06;43.31
77100;SHT31;66602;48.922;2.414;2023-04-01T12:51:19;16.77;44.14
77100;SHT31;66602;48.922;2.414;2023-04-01T12:55:07;17.24;44.41
77100;SHT31;66602;48.922;2.414;2023-04-01T12:57:28;18.65;39.91
77100;SHT31;66602;48.922;2.414;2023-04-01T13:24:44;18.73;41.61
77100;SHT31;66602;48.922;2.414;2023-04-01T13:27:47;18.28;41.65
77100;SHT31;66602;48.922;2.414;2023-04-01T13:30:30;17.58;43.47
77100;SHT31;66602;48.922;2.414;2023-04-01T13:38:52;17.19;44.79
77100;SHT31;66602;48.922;2.414;2023-04-01T13:54:50;17.22;44.03
77100;SHT31;66602;48.922;2.414;2023-04-01T13:57:47;17.56;42.82
77100;SHT31;66602;48.922;2.414;2023-04-01T14:06:12;16.61;44.36
77100;SHT31;66602;48.922;2.414;2023-04-01T14:11:53;16.70;45.19
77100;SHT31;66602;48.922;2.414;2023-04-01T14:17:21;16.57;46.58
77100;SHT31;66602;48.922;2.414;2023-04-01T14:31:30;16.81;45.91
77100;SHT31;66602;48.922;2.414;2023-04-01T14:37:07;16.52;46.15
77100;SHT31;66602;48.922;2.414;2023-04-01T14:40:05;16.16;49.42
77100;SHT31;66602;48.922;2.414;2023-04-01T14:43:10;15.46;53.33
77100;SHT31;66602;48.922;2.414;2023-04-01T14:49:13;14.71;57.39
77100;SHT31;66602;48.922;2.414;2023-04-01T14:51:22;14.86;56.49
77100;SHT31;66602;48.922;2.414;2023-04-01T14:54:16;14.98;56.68
77100;SHT31;66602;48.922;2.414;2023-04-01T14:57:05;14.88;57.21
77100;SHT31;66602;48.922;2.414;2023-04-01T14:59:39;14.80;57.44
77100;SHT31;66602;48.922;2.414;2023-04-01T15:02:14;14.80;57.72
77100;SHT31;66602;48.922;2.414;2023-04-01T15:05:03;14.68;57.97
77100;SHT31;66602;48.922;2.414;2023-04-01T15:08:09;14.42;58.83
77100;SHT31;66602;48.922;2.414;2023-04-01T15:11:07;14.14;60.38
77100;SHT31;66602;48.922;2.414;2023-04-01T15:24:56;12.64;68.20
77100;SHT31;66602;48.922;2.414;2023-04-01T15:27:48;12.56;69.73
77100;SHT31;66602;48.922;2.414;2023-04-01T15:33:22;12.57;68.25
77100;SHT31;66602;48.922;2.414;2023-04-01T15:47:01;13.38;64.23
77100;SHT31;66602;48.922;2.414;2023-04-01T15:49:42;13.02;66.45
77100;SHT31;66602;48.922;2.414;2023-04-01T15:57:52;12.37;67.74
77100;SHT31;66602;48.922;2.414;2023-04-01T16:00:28;12.54;66.93
77100;SHT31;66602;48.922;2.414;2023-04-01T16:03:13;12.77;66.15
77100;SHT31;66602;48.922;2.414;2023-04-01T16:08:54;12.76;66.20
77100;SHT31;66602;48.922;2.414;2023-04-01T16:14:23;12.68;67.15
77100;SHT31;66602;48.922;2.414;2023-04-01T16:20:19;12.84;66.94
77100;SHT31;66602;48.922;2.414;2023-04-01T16:23:00;12.88;67.20
77100;SHT31;66602;48.922;2.414;2023-04-01T16:25:39;12.90;66.32
77100;SHT31;66602;48.922;2.414;2023-04-01T16:31:06;13.12;65.66
77100;SHT31;66602;48.922;2.414;2023-04-01T16:33:47;13.19;65.63
77100;SHT31;66602;48.922;2.414;2023-04-01T16:41:33;12.88;65.18
77100;SHT31;66602;48.922;2.414;2023-04-01T16:46:54;12.81;64.13
77100;SHT31;66602;48.922;2.414;2023-04-01T16:49:31;12.73;63.84
77100;SHT31;66602;48.922;2.414;2023-04-01T16:52:15;12.61;63.28
77100;SHT31;66602;48.922;2.414;2023-04-01T16:54:51;12.56;64.83
77100;SHT31;66602;48.922;2.414;2023-04-01T17:00:26;12.32;64.86
77100;SHT31;66602;48.922;2.414;2023-04-01T17:11:19;11.81;68.74
77100;SHT31;66602;48.922;2.414;2023-04-01T17:28:14;11.61;71.31
77100;SHT31;66602;48.922;2.414;2023-04-01T17:33:41;11.30;74.19
77100;SHT31;66602;48.922;2.414;2023-04-01T17:36:35;11.16;75.43
77100;SHT31;66602;48.922;2.414;2023-04-01T17:57:27;10.35;83.12
77100;SHT31;66602;48.922;2.414;2023-04-01T18:05:39;10.10;86.75
77100;SHT31;66602;48.922;2.414;2023-04-01T18:24:58;9.59;91.60
77100;SHT31;66602;48.922;2.414;2023-04-01T18:27:45;9.56;91.61
77100;SHT31;66602;48.922;2.414;2023-04-01T18:30:22;9.62;91.97
77100;SHT31;66602;48.922;2.414;2023-04-01T18:35:57;9.59;92.13
77100;SHT31;66602;48.922;2.414;2023-04-01T18:38:38;9.59;92.25
77100;SHT31;66602;48.922;2.414;2023-04-01T18:41:28;9.63;92.01
77100;SHT31;66602;48.922;2.414;2023-04-01T18:44:08;9.59;91.58
77100;SHT31;66602;48.922;2.414;2023-04-01T18:47:19;9.55;91.64
77100;SHT31;66602;48.922;2.414;2023-04-01T18:52:52;9.65;91.42
77100;SHT31;66602;48.922;2.414;2023-04-01T18:55:47;9.65;91.32
77100;SHT31;66602;48.922;2.414;2023-04-01T18:58:32;9.73;91.55
77100;SHT31;66602;48.922;2.414;2023-04-01T19:01:28;9.73;90.30
77100;SHT31;66602;48.922;2.414;2023-04-01T19:06:48;9.73;89.83
77100;SHT31;66602;48.922;2.414;2023-04-01T19:09:26;9.70;89.92
77100;SHT31;66602;48.922;2.414;2023-04-01T19:17:29;9.73;89.64
77100;SHT31;66602;48.922;2.414;2023-04-01T19:25:40;9.69;90.48
77100;SHT31;66602;48.922;2.414;2023-04-01T19:33:58;9.70;90.11
77100;SHT31;66602;48.922;2.414;2023-04-01T19:44:27;9.76;89.69
77100;SHT31;66602;48.922;2.414;2023-04-01T19:52:39;9.72;90.17
77100;SHT31;66602;48.922;2.414;2023-04-01T19:55:33;9.70;89.51
77100;SHT31;66602;48.922;2.414;2023-04-01T20:00:49;9.65;89.44
77100;SHT31;66602;48.922;2.414;2023-04-01T20:06:04;9.62;89.02
77100;SHT31;66602;48.922;2.414;2023-04-01T20:19:40;9.56;89.75
77100;SHT31;66602;48.922;2.414;2023-04-01T20:28:05;9.50;89.41
77100;SHT31;66602;48.922;2.414;2023-04-01T20:50:11;9.35;86.84
77100;SHT31;66602;48.922;2.414;2023-04-01T20:58:20;9.40;86.37
77100;SHT31;66602;48.922;2.414;2023-04-01T21:03:56;9.40;85.13
77100;SHT31;66602;48.922;2.414;2023-04-01T21:21:07;9.50;84.89
77100;SHT31;66602;48.922;2.414;2023-04-01T21:23:05;9.53;84.72
77100;SHT31;66602;48.922;2.414;2023-04-01T21:31:27;9.56;84.37
77100;SHT31;66602;48.922;2.414;2023-04-01T21:36:57;9.65;84.19
77100;SHT31;66602;48.922;2.414;2023-04-01T21:45:00;9.69;83.23
77100;SHT31;66602;48.922;2.414;2023-04-01T22:05:07;9.65;83.43
77100;SHT31;66602;48.922;2.414;2023-04-01T22:08:05;9.63;83.61
77100;SHT31;66602;48.922;2.414;2023-04-01T22:10:43;9.63;83.37
77100;SHT31;66602;48.922;2.414;2023-04-01T22:13:17;9.69;83.19
77100;SHT31;66602;48.922;2.414;2023-04-01T22:16:16;9.66;83.39
77100;SHT31;66602;48.922;2.414;2023-04-01T22:19:01;9.70;83.32
77100;SHT31;66602;48.922;2.414;2023-04-01T22:21:47;9.72;83.07
77100;SHT31;66602;48.922;2.414;2023-04-01T22:27:23;9.79;82.77
77100;SHT31;66602;48.922;2.414;2023-04-01T22:32:43;9.76;82.48
77100;SHT31;66602;48.922;2.414;2023-04-01T22:37:58;9.79;82.26
77100;SHT31;66602;48.922;2.414;2023-04-01T22:40:34;9.77;81.98
77100;SHT31;66602;48.922;2.414;2023-04-01T22:43:08;9.80;82.00
77100;SHT31;66602;48.922;2.414;2023-04-01T22:51:28;9.72;81.80
77100;SHT31;66602;48.922;2.414;2023-04-01T22:56:51;9.74;81.66
77100;SHT31;66602;48.922;2.414;2023-04-01T22:59:32;9.76;81.15
77100;SHT31;66602;48.922;2.414;2023-04-01T23:02:11;9.72;80.93
77100;SHT31;66602;48.922;2.414;2023-04-01T23:04:41;9.73;80.72
77100;SHT31;66602;48.922;2.414;2023-04-01T23:07:48;9.72;80.85
77100;SHT31;66602;48.922;2.414;2023-04-01T23:12:54;9.70;80.58
77100;SHT31;66602;48.922;2.414;2023-04-01T23:15:23;9.66;80.77
77100;SHT31;66602;48.922;2.414;2023-04-01T23:18:00;9.66;80.92
77100;SHT31;66602;48.922;2.414;2023-04-01T23:26:21;9.60;80.35
77100;SHT31;66602;48.922;2.414;2023-04-01T23:34:08;9.55;80.08
77100;SHT31;66602;48.922;2.414;2023-04-01T23:36:42;9.56;80.12
77100;SHT31;66602;48.922;2.414;2023-04-01T23:41:48;9.60;80.04
77100;SHT31;66602;48.922;2.414;2023-04-01T23:44:15;9.60;79.62
77100;SHT31;66602;48.922;2.414;2023-04-01T23:46:42;9.59;79.76
77100;SHT31;66602;48.922;2.414;2023-04-01T23:49:21;9.56;79.50
77100;SHT31;66602;48.922;2.414;2023-04-01T23:51:53;9.59;79.74
77100;SHT31;66602;48.922;2.414;2023-04-01T23:54:34;9.60;79.52
77100;SHT31;66602;48.922;2.414;2023-04-01T23:57:12;9.57;79.83
77100;SHT31;66602;48.922;2.414;2023-04-01T23:59:39;9.52;80.17
